Wetterdaten: aktuell Montag, 26.02.2024 02:00
Datum Zeit Temp. 2 m Feuchte 2 m Luftdruck Regen Wind Richtung Richtung Taupunkt Windchill Windben
26.02.2024 02:00 -0,4 C 85 % 1001,0 hPa 0,0 l/m 1,8 km/h (1 Bft) SO 135 -2,6 C -0,4 C 2,2 km/h (1 Bft)
26.02.2024 01:55 -0,4 C 85 % 1001,0 hPa 0,0 l/m 2,9 km/h (1 Bft) O-SO 112 -2,6 C -0,4 C 4,3 km/h (1 Bft)
26.02.2024 01:50 -0,4 C 85 % 1001,0 hPa 0,0 l/m 2,2 km/h (1 Bft) SO 135 -2,6 C -0,4 C 4,3 km/h (1 Bft)
26.02.2024 01:45 -0,4 C 85 % 1001,0 hPa 0,0 l/m 0,0 km/h (0 Bft) SO 135 -2,6 C -0,4 C 0,0 km/h (0 Bft)
26.02.2024 01:40 -0,3 C 85 % 1001,0 hPa 0,0 l/m 1,4 km/h (1 Bft) SO 135 -2,5 C -0,3 C 2,2 km/h (1 Bft)
26.02.2024 01:35 -0,2 C 85 % 1001,0 hPa 0,0 l/m 0,0 km/h (0 Bft) SO 135 -2,4 C -0,2 C 0,0 km/h (0 Bft)
26.02.2024 01:30 -0,1 C 85 % 1001,0 hPa 0,0 l/m 0,0 km/h (0 Bft) SO 135 -2,3 C -0,1 C 0,0 km/h (0 Bft)
26.02.2024 01:25 -0,1 C 85 % 1001,0 hPa 0,0 l/m 0,0 km/h (0 Bft) SO 135 -2,3 C -0,1 C 0,0 km/h (0 Bft)
26.02.2024 01:20 0,0 C 85 % 1001,0 hPa 0,0 l/m 0,0 km/h (0 Bft) SO 135 -2,2 C 0,0 C 0,0 km/h (0 Bft)
26.02.2024 01:15 0,0 C 85 % 1001,0 hPa 0,0 l/m 0,0 km/h (0 Bft) SO 135 -2,2 C 0,0 C 0,0 km/h (0 Bft)
26.02.2024 01:10 0,0 C 85 % 1001,0 hPa 0,0 l/m 1,1 km/h (1 Bft) SO 135 -2,2 C 0,0 C 2,2 km/h (1 Bft)
26.02.2024 01:05 0,0 C 85 % 1001,0 hPa 0,0 l/m 2,5 km/h (1 Bft) SO 135 -2,2 C 0,0 C 4,3 km/h (1 Bft)
26.02.2024 01:00 0,0 C 84 % 1001,0 hPa 0,0 l/m 0,0 km/h (0 Bft) SO 135 -2,4 C 0,0 C 0,0 km/h (0 Bft)
26.02.2024 00:55 0,0 C 84 % 1001,0 hPa 0,0 l/m 0,0 km/h (0 Bft) SO 135 -2,4 C 0,0 C 0,0 km/h (0 Bft)
26.02.2024 00:50 0,0 C 84 % 1001,0 hPa 0,0 l/m 1,1 km/h (1 Bft) SO 135 -2,4 C 0,0 C 2,2 km/h (1 Bft)
26.02.2024 00:45 0,0 C 84 % 1001,0 hPa 0,0 l/m 2,5 km/h (1 Bft) SO 135 -2,4 C 0,0 C 4,3 km/h (1 Bft)
26.02.2024 00:40 0,0 C 84 % 1001,0 hPa 0,0 l/m 2,9 km/h (1 Bft) SO 135 -2,4 C 0,0 C 4,3 km/h (1 Bft)
26.02.2024 00:35 0,0 C 84 % 1001,0 hPa 0,0 l/m 1,1 km/h (1 Bft) SO 135 -2,4 C 0,0 C 2,2 km/h (1 Bft)
26.02.2024 00:30 0,1 C 84 % 1001,0 hPa 0,0 l/m 0,7 km/h (0 Bft) SO 135 -2,3 C 0,1 C 2,2 km/h (1 Bft)
26.02.2024 00:25 0,2 C 83 % 1002,0 hPa 0,0 l/m 0,0 km/h (0 Bft) SO 135 -2,3 C 0,2 C 0,0 km/h (0 Bft)
26.02.2024 00:20 0,2 C 83 % 1002,0 hPa 0,0 l/m 0,0 km/h (0 Bft) SO 135 -2,3 C 0,2 C 0,0 km/h (0 Bft)
26.02.2024 00:15 0,2 C 83 % 1002,0 hPa 0,0 l/m 0,0 km/h (0 Bft) SO 135 -2,3 C 0,2 C 0,0 km/h (0 Bft)
26.02.2024 00:10 0,2 C 83 % 1002,0 hPa 0,0 l/m 1,8 km/h (1 Bft) SO 135 -2,3 C 0,2 C 2,2 km/h (1 Bft)
26.02.2024 00:05 0,2 C 83 % 1002,0 hPa 0,0 l/m 2,5 km/h (1 Bft) SO 135 -2,3 C 0,2 C 4,3 km/h (1 Bft)
26.02.2024 00:00 0,1 C 83 % 1002,0 hPa 0,0 l/m 2,9 km/h (1 Bft) S-SO 157 -2,4 C 0,1 C 4,3 km/h (1 Bft)
25.02.2024 23:55 0,1 C 83 % 1002,0 hPa 0,0 l/m 4,0 km/h (1 Bft) SO 135 -2,4 C 0,1 C 6,5 km/h (2 Bft)
25.02.2024 23:50 0,0 C 83 % 1002,0 hPa 0,0 l/m 1,4 km/h (1 Bft) S-SO 157 -2,5 C 0,0 C 2,2 km/h (1 Bft)
25.02.2024 23:45 0,1 C 83 % 1002,0 hPa 0,0 l/m 2,2 km/h (1 Bft) S-SO 157 -2,4 C 0,1 C 2,2 km/h (1 Bft)
25.02.2024 23:40 0,1 C 82 % 1002,0 hPa 0,0 l/m 2,2 km/h (1 Bft) S-SO 157 -2,6 C 0,1 C 2,2 km/h (1 Bft)
25.02.2024 23:35 0,1 C 82 % 1002,0 hPa 0,0 l/m 0,7 km/h (0 Bft) S 180 -2,6 C 0,1 C 2,2 km/h (1 Bft)
25.02.2024 23:30 0,2 C 82 % 1002,0 hPa 0,0 l/m 0,0 km/h (0 Bft) S 180 -2,5 C 0,2 C 0,0 km/h (0 Bft)
25.02.2024 23:25 0,2 C 82 % 1002,0 hPa 0,0 l/m 0,0 km/h (0 Bft) S 180 -2,5 C 0,2 C 0,0 km/h (0 Bft)
25.02.2024 23:20 0,3 C 82 % 1002,0 hPa 0,0 l/m 0,0 km/h (0 Bft) S-SW 202 -2,4 C 0,3 C 0,0 km/h (0 Bft)
25.02.2024 23:15 0,4 C 81 % 1002,0 hPa 0,0 l/m 0,0 km/h (0 Bft) S 180 -2,5 C 0,4 C 0,0 km/h (0 Bft)
25.02.2024 23:10 0,4 C 81 % 1002,0 hPa 0,0 l/m 0,0 km/h (0 Bft) S-SO 157 -2,5 C 0,4 C 0,0 km/h (0 Bft)
25.02.2024 23:05 0,4 C 81 % 1002,0 hPa 0,0 l/m 0,0 km/h (0 Bft) S-SO 157 -2,5 C 0,4 C 0,0 km/h (0 Bft)
25.02.2024 23:00 0,5 C 81 % 1002,0 hPa 0,0 l/m 0,7 km/h (0 Bft) S-SO 157 -2,4 C 0,5 C 2,2 km/h (1 Bft)
25.02.2024 22:55 0,5 C 82 % 1002,0 hPa 0,0 l/m 0,0 km/h (0 Bft) S-SO 157 -2,2 C 0,5 C 0,0 km/h (0 Bft)
25.02.2024 22:50 0,6 C 82 % 1002,0 hPa 0,0 l/m 1,1 km/h (1 Bft) S-SO 157 -2,1 C 0,6 C 2,2 km/h (1 Bft)
25.02.2024 22:45 0,7 C 81 % 1002,0 hPa 0,0 l/m 2,2 km/h (1 Bft) SO 135 -2,2 C 0,7 C 4,3 km/h (1 Bft)
25.02.2024 22:40 0,8 C 81 % 1002,0 hPa 0,0 l/m 1,4 km/h (1 Bft) S-SO 157 -2,1 C 0,8 C 2,2 km/h (1 Bft)
25.02.2024 22:35 0,8 C 81 % 1001,0 hPa 0,0 l/m 4,0 km/h (1 Bft) SO 135 -2,1 C 0,8 C 4,3 km/h (1 Bft)
25.02.2024 22:30 1,0 C 80 % 1002,0 hPa 0,0 l/m 2,2 km/h (1 Bft) S-SO 157 -2,1 C 1,0 C 2,2 km/h (1 Bft)
25.02.2024 22:25 1,0 C 80 % 1002,0 hPa 0,0 l/m 1,1 km/h (1 Bft) S-SO 157 -2,1 C 1,0 C 2,2 km/h (1 Bft)
25.02.2024 22:20 1,1 C 80 % 1002,0 hPa 0,0 l/m 1,1 km/h (1 Bft) S-SO 157 -2,0 C 1,1 C 2,2 km/h (1 Bft)
25.02.2024 22:15 1,2 C 80 % 1002,0 hPa 0,0 l/m 1,4 km/h (1 Bft) S-SO 157 -1,9 C 1,2 C 2,2 km/h (1 Bft)
25.02.2024 22:10 1,3 C 80 % 1002,0 hPa 0,0 l/m 0,0 km/h (0 Bft) S-SW 202 -1,8 C 1,3 C 0,0 km/h (0 Bft)
25.02.2024 22:05 1,4 C 80 % 1002,0 hPa 0,0 l/m 0,0 km/h (0 Bft) SW 225 -1,7 C 1,4 C 0,0 km/h (0 Bft)
25.02.2024 22:00 1,5 C 79 % 1002,0 hPa 0,0 l/m 0,0 km/h (0 Bft) SW 225 -1,7 C 1,5 C 0,0 km/h (0 Bft)
25.02.2024 21:55 1,6 C 79 % 1002,0 hPa 0,0 l/m 0,0 km/h (0 Bft) W-SW 247 -1,6 C 1,6 C 0,0 km/h (0 Bft)
25.02.2024 21:50 1,7 C 79 % 1002,0 hPa 0,0 l/m 0,7 km/h (0 Bft) W-SW 247 -1,5 C 1,7 C 2,2 km/h (1 Bft)
25.02.2024 21:45 1,9 C 78 % 1002,0 hPa 0,0 l/m 0,0 km/h (0 Bft) N-NO 22 -1,5 C 1,9 C 2,2 km/h (1 Bft)
25.02.2024 21:40 2,0 C 78 % 1002,0 hPa 0,0 l/m 2,9 km/h (1 Bft) W-SW 247 -1,4 C 2,0 C 4,3 km/h (1 Bft)
25.02.2024 21:35 2,1 C 78 % 1002,0 hPa 0,0 l/m 0,4 km/h (0 Bft) SW 225 -1,3 C 2,1 C 2,2 km/h (1 Bft)
25.02.2024 21:30 2,3 C 78 % 1002,0 hPa 0,0 l/m 0,4 km/h (0 Bft) SW 225 -1,1 C 2,3 C 2,2 km/h (1 Bft)
25.02.2024 21:25 2,4 C 77 % 1002,0 hPa 0,0 l/m 0,4 km/h (0 Bft) W 270 -1,2 C 2,4 C 2,2 km/h (1 Bft)
25.02.2024 21:20 2,6 C 77 % 1002,0 hPa 0,0 l/m 1,1 km/h (1 Bft) N-NW 337 -1,0 C 2,6 C 2,2 km/h (1 Bft)
25.02.2024 21:15 2,8 C 77 % 1002,0 hPa 0,0 l/m 0,0 km/h (0 Bft) SW 225 -0,8 C 2,8 C 0,0 km/h (0 Bft)
25.02.2024 21:10 3,0 C 76 % 1002,0 hPa 0,0 l/m 1,8 km/h (1 Bft) SW 225 -0,8 C 3,0 C 4,3 km/h (1 Bft)
25.02.2024 21:05 3,2 C 76 % 1002,0 hPa 0,0 l/m 1,4 km/h (1 Bft) O-NO 67 -0,6 C 3,2 C 2,2 km/h (1 Bft)
25.02.2024 21:00 3,3 C 76 % 1002,0 hPa 0,0 l/m 0,0 km/h (0 Bft) N-NW 337 -0,5 C 3,3 C 0,0 km/h (0 Bft)
_ Min-Zeit 01:45 14:40 22:35 - 03:15 - - 01:45 01:45 03:15
Minimum _ -0,4 C 52 % 1001,0 hPa - 0,0 km/h (0 Bft) - - -2,6 C -0,4 C 0,0 km/h (0 Bft)
_ Max-Zeit 14:35 01:05 03:00 03:00 14:40 - - 12:05 14:30 14:40
Maximum _ 12,9 C 85 % 1006,0 hPa 0,0 l/m 15,8 km/h
S-SW (3 Bft)
- - 4,7 C 12,7 C 26,3 km/h
S-SW (4 Bft)
Durchschnitt _ 5,1 C 73 % 1003,8 hPa #0,0 l/m 3,3 km/h (1 Bft) S-SO - 0,4 C 4,8 C 5,2 km/h (1 Bft)